Time;durP1;ratioP1;P1;durP2;ratioP2;P2;SDS_P1;SDS_P2;PMS_P1;PMS_P2;Temp;Humidity;BMP_temperature;BMP_pressure;BME280_temperature;BME280_humidity;BME280_pressure;Samples;Min_cycle;Max_cycle;Signal;HPM_P1;HPM_P2
2022/01/06 00:00:11;;;;;;;17.83;5.82;;;7.70;67.30;;;;;;4997127;28;20034;-52
2022/01/06 00:02:37;;;;;;;15.15;5.63;;;7.70;67.30;;;;;;4993265;28;20386;-56
2022/01/06 00:05:04;;;;;;;16.83;5.70;;;7.70;67.30;;;;;;4991741;28;20471;-57
2022/01/06 00:07:32;;;;;;;12.98;5.30;;;7.70;67.20;;;;;;4979298;28;21053;-57
2022/01/06 00:09:58;;;;;;;19.33;6.32;;;7.70;67.20;;;;;;4983826;28;20049;-56
2022/01/06 00:12:33;;;;;;;20.13;5.57;;;7.70;67.20;;;;;;4984687;28;20022;-55
2022/01/06 00:15:11;;;;;;;14.73;5.07;;;7.70;67.20;;;;;;4982692;28;20049;-55
2022/01/06 00:18:10;;;;;;;22.42;5.72;;;7.70;67.10;;;;;;4979575;28;20033;-57
2022/01/06 00:23:30;;;;;;;16.00;5.60;;;7.70;67.00;;;;;;4989679;28;20110;-58
2022/01/06 00:25:58;;;;;;;18.02;4.68;;;7.70;66.90;;;;;;4983499;28;21077;-57
2022/01/06 00:28:25;;;;;;;18.55;6.05;;;7.70;67.00;;;;;;4979869;28;20022;-54
2022/01/06 00:30:52;;;;;;;16.20;4.88;;;7.70;67.10;;;;;;4979818;28;20479;-56
2022/01/06 00:33:19;;;;;;;19.50;5.28;;;7.60;67.20;;;;;;4983194;28;20034;-56
2022/01/06 00:35:45;;;;;;;16.88;5.30;;;7.70;67.30;;;;;;4983548;28;20041;-59
2022/01/06 00:38:12;;;;;;;17.75;5.93;;;7.60;67.20;;;;;;4988370;28;20049;-55
2022/01/06 00:40:38;;;;;;;22.20;5.38;;;7.60;67.10;;;;;;4982411;28;20491;-56
2022/01/06 00:43:06;;;;;;;20.65;6.28;;;7.60;67.10;;;;;;4982931;28;20049;-55
2022/01/06 00:45:33;;;;;;;24.20;5.55;;;7.60;67.10;;;;;;4981866;28;20034;-56
2022/01/06 00:48:00;;;;;;;24.45;6.68;;;7.60;67.20;;;;;;4980843;28;20034;-56
2022/01/06 00:50:26;;;;;;;23.23;6.68;;;7.60;67.30;;;;;;4980788;28;20555;-54
2022/01/06 00:52:53;;;;;;;26.33;6.70;;;7.60;67.30;;;;;;4982842;28;20014;-56
2022/01/06 00:55:19;;;;;;;23.50;6.50;;;7.60;67.40;;;;;;4970929;28;20395;-58
2022/01/06 00:57:45;;;;;;;18.13;6.40;;;7.60;67.40;;;;;;4966901;28;20038;-56
2022/01/06 01:00:12;;;;;;;25.20;6.55;;;7.60;67.50;;;;;;4980122;28;20865;-56
2022/01/06 01:02:38;;;;;;;33.30;6.55;;;7.60;67.40;;;;;;4981356;28;20363;-55
2022/01/06 01:05:05;;;;;;;20.52;6.28;;;7.60;67.40;;;;;;4982888;28;20030;-58
2022/01/06 01:07:31;;;;;;;21.25;5.85;;;7.50;67.40;;;;;;4972336;28;20054;-56
2022/01/06 01:09:57;;;;;;;28.77;6.60;;;7.50;67.50;;;;;;4981069;28;20030;-56
2022/01/06 01:12:25;;;;;;;24.45;6.60;;;7.50;67.60;;;;;;4981597;28;20023;-56
2022/01/06 01:15:05;;;;;;;28.92;5.93;;;7.50;67.50;;;;;;4981894;28;20046;-53
2022/01/06 01:17:32;;;;;;;29.80;7.45;;;7.50;67.40;;;;;;4979749;28;20046;-54
2022/01/06 01:19:59;;;;;;;21.33;6.25;;;7.50;67.40;;;;;;4982935;28;20042;-55
2022/01/06 01:22:25;;;;;;;23.85;6.07;;;7.50;67.40;;;;;;4982678;28;20616;-57
2022/01/06 01:24:52;;;;;;;26.02;6.47;;;7.50;67.50;;;;;;4982577;28;20045;-54
2022/01/06 01:27:22;;;;;;;26.55;7.43;;;7.50;67.50;;;;;;4978204;28;21632;-56
2022/01/06 01:30:02;;;;;;;25.42;7.47;;;7.50;67.50;;;;;;4979238;28;20031;-57
2022/01/06 01:32:33;;;;;;;26.70;7.38;;;7.50;67.50;;;;;;4980402;28;20041;-54
2022/01/06 01:35:01;;;;;;;30.05;7.40;;;7.50;67.60;;;;;;4981781;28;20050;-57
2022/01/06 01:37:31;;;;;;;33.13;8.45;;;7.50;67.60;;;;;;4979875;28;20047;-58
2022/01/06 01:39:58;;;;;;;33.33;8.00;;;7.50;67.60;;;;;;4966579;28;20034;-58
2022/01/06 01:42:25;;;;;;;31.75;7.88;;;7.50;67.60;;;;;;4985070;28;20030;-56
2022/01/06 01:44:52;;;;;;;22.38;7.05;;;7.50;67.50;;;;;;4982399;28;20041;-55
2022/01/06 01:50:12;;;;;;;25.67;7.43;;;7.50;67.50;;;;;;4981218;28;20031;-57
2022/01/06 01:52:41;;;;;;;23.75;6.43;;;7.50;67.60;;;;;;4980605;28;20029;-57
2022/01/06 01:55:08;;;;;;;29.73;7.50;;;7.50;67.50;;;;;;4981877;28;20030;-56
2022/01/06 01:57:35;;;;;;;27.23;7.25;;;7.40;67.40;;;;;;4979203;28;20470;-53
2022/01/06 02:00:03;;;;;;;27.17;6.63;;;7.40;67.40;;;;;;4982040;28;20025;-56
2022/01/06 02:02:29;;;;;;;21.92;6.70;;;7.40;67.40;;;;;;4981476;28;20038;-56
2022/01/06 02:04:55;;;;;;;29.45;6.10;;;7.40;67.50;;;;;;4982261;28;20027;-55
2022/01/06 02:07:21;;;;;;;23.77;6.38;;;7.40;67.50;;;;;;4965631;28;20795;-57
2022/01/06 02:09:47;;;;;;;27.70;7.25;;;7.40;67.30;;;;;;4979117;28;20022;-58
2022/01/06 02:12:28;;;;;;;19.70;6.22;;;7.40;67.20;;;;;;4981641;28;20038;-56
2022/01/06 02:14:54;;;;;;;21.33;6.05;;;7.30;67.10;;;;;;4980456;28;20034;-56
2022/01/06 02:17:21;;;;;;;23.80;6.10;;;7.30;67.00;;;;;;4977155;28;20039;-58
2022/01/06 02:20:02;;;;;;;26.13;6.47;;;7.30;67.10;;;;;;4968615;28;20034;-56
2022/01/06 02:22:28;;;;;;;20.10;6.18;;;7.20;67.10;;;;;;4980596;28;20038;-55
2022/01/06 02:24:55;;;;;;;26.83;6.05;;;7.30;67.10;;;;;;4980415;28;20022;-56
2022/01/06 02:27:22;;;;;;;25.98;7.45;;;7.20;66.90;;;;;;4976419;28;20032;-56
2022/01/06 02:29:52;;;;;;;29.95;6.55;;;7.20;66.80;;;;;;4981636;28;20061;-56
2022/01/06 02:32:21;;;;;;;30.70;6.43;;;7.20;66.80;;;;;;4979171;28;20042;-57
2022/01/06 02:34:48;;;;;;;23.67;5.40;;;7.20;66.90;;;;;;4980093;28;20046;-56
2022/01/06 02:37:15;;;;;;;32.47;6.90;;;7.10;66.90;;;;;;4977785;28;20022;-55
2022/01/06 02:39:42;;;;;;;18.55;5.47;;;7.10;67.00;;;;;;4978149;28;20034;-56
2022/01/06 02:42:09;;;;;;;20.77;5.68;;;7.10;67.10;;;;;;4981287;28;20397;-54
2022/01/06 02:44:38;;;;;;;18.80;5.20;;;7.10;67.00;;;;;;4962011;28;20476;-55
2022/01/06 02:47:06;;;;;;;26.35;4.75;;;7.10;67.00;;;;;;4976759;28;20045;-55
2022/01/06 02:49:33;;;;;;;29.98;5.30;;;7.10;67.00;;;;;;4978520;28;20391;-57
2022/01/06 02:51:59;;;;;;;21.02;5.28;;;7.00;66.90;;;;;;4978698;28;20030;-55
2022/01/06 02:54:27;;;;;;;32.90;5.45;;;7.00;67.00;;;;;;4979864;28;20030;-55
2022/01/06 02:56:53;;;;;;;32.90;5.32;;;7.00;66.90;;;;;;4980251;28;20041;-56
2022/01/06 02:59:20;;;;;;;23.65;4.97;;;7.00;66.80;;;;;;4979705;28;20030;-56
2022/01/06 03:01:46;;;;;;;23.77;4.70;;;7.00;66.80;;;;;;4978070;28;20042;-52
2022/01/06 03:04:13;;;;;;;19.10;3.72;;;7.00;66.70;;;;;;4981027;28;20030;-55
2022/01/06 03:06:40;;;;;;;31.13;5.07;;;7.00;66.70;;;;;;4981651;28;20434;-58
2022/01/06 03:09:07;;;;;;;23.23;3.92;;;6.90;66.70;;;;;;4978123;28;20398;-56
2022/01/06 03:11:33;;;;;;;33.05;5.53;;;7.00;66.80;;;;;;4981099;28;20394;-54
2022/01/06 03:14:00;;;;;;;19.08;4.40;;;6.90;66.90;;;;;;4978658;28;20022;-58
2022/01/06 03:16:26;;;;;;;26.77;4.63;;;6.90;66.90;;;;;;4970237;28;20038;-57
2022/01/06 03:18:53;;;;;;;26.20;4.72;;;7.00;67.20;;;;;;4978786;28;20463;-58
2022/01/06 03:21:19;;;;;;;24.63;4.30;;;6.90;67.10;;;;;;4980916;28;20057;-56
2022/01/06 03:23:45;;;;;;;26.02;4.68;;;7.00;67.20;;;;;;4979714;28;20026;-56
2022/01/06 03:26:11;;;;;;;29.38;5.05;;;7.00;67.10;;;;;;4980891;28;20504;-57
2022/01/06 03:28:37;;;;;;;21.75;4.30;;;7.00;67.10;;;;;;4978305;28;20018;-54
2022/01/06 03:31:04;;;;;;;28.75;4.78;;;7.00;67.00;;;;;;4980078;28;20045;-57
2022/01/06 03:33:30;;;;;;;28.77;5.68;;;7.00;67.00;;;;;;4978453;28;20035;-57
2022/01/06 03:35:56;;;;;;;25.23;3.83;;;7.10;67.00;;;;;;4979466;28;20014;-57
2022/01/06 03:38:22;;;;;;;25.33;4.13;;;7.00;66.90;;;;;;4978335;28;20383;-56
2022/01/06 03:40:48;;;;;;;20.40;3.30;;;7.10;66.90;;;;;;4980162;28;20310;-57
2022/01/06 03:43:15;;;;;;;23.67;3.67;;;7.10;66.90;;;;;;4982617;28;20023;-56
2022/01/06 03:45:42;;;;;;;24.65;3.72;;;7.10;66.90;;;;;;4968858;28;20126;-58
2022/01/06 03:48:08;;;;;;;19.15;3.38;;;7.10;66.80;;;;;;4981173;28;20041;-57
2022/01/06 03:50:34;;;;;;;18.05;4.10;;;7.10;66.70;;;;;;4983143;28;20616;-56
2022/01/06 03:53:00;;;;;;;27.40;3.72;;;7.10;66.60;;;;;;4983750;28;20026;-56
2022/01/06 03:55:27;;;;;;;30.67;4.28;;;7.10;66.50;;;;;;4982399;28;21000;-57
2022/01/06 03:57:53;;;;;;;26.90;3.75;;;7.10;66.30;;;;;;4983064;28;20034;-57
2022/01/06 04:00:22;;;;;;;22.58;3.97;;;7.20;66.30;;;;;;4983073;28;20430;-56
2022/01/06 04:02:48;;;;;;;22.30;4.07;;;7.20;66.30;;;;;;4983601;28;20037;-58
2022/01/06 04:05:15;;;;;;;25.42;3.83;;;7.20;66.30;;;;;;4985291;28;20039;-56
2022/01/06 04:07:42;;;;;;;25.45;4.45;;;7.20;66.30;;;;;;4990706;28;20041;-56
2022/01/06 04:10:09;;;;;;;20.45;4.53;;;7.20;66.10;;;;;;4988755;28;20567;-54
2022/01/06 04:12:37;;;;;;;27.80;4.32;;;7.20;66.00;;;;;;4984044;28;20034;-56
2022/01/06 04:15:08;;;;;;;16.73;3.80;;;7.10;65.80;;;;;;4999530;28;20049;-58
2022/01/06 04:17:34;;;;;;;26.27;4.53;;;7.20;65.90;;;;;;4988882;28;20038;-55
2022/01/06 04:20:01;;;;;;;29.17;4.18;;;7.10;65.70;;;;;;5001411;28;20102;-58
2022/01/06 04:22:27;;;;;;;33.22;4.43;;;7.10;65.70;;;;;;4993433;28;20034;-54
2022/01/06 04:24:53;;;;;;;18.15;3.70;;;7.10;65.70;;;;;;4989647;28;20033;-56
2022/01/06 04:27:19;;;;;;;20.52;4.00;;;7.10;65.70;;;;;;4992187;28;20039;-56
2022/01/06 04:29:45;;;;;;;15.77;4.18;;;7.10;65.70;;;;;;4992703;28;20499;-56
2022/01/06 04:32:12;;;;;;;19.52;3.60;;;7.10;65.70;;;;;;4988222;28;20026;-57
2022/01/06 04:34:38;;;;;;;19.40;3.90;;;7.10;65.60;;;;;;4996917;28;20026;-57
2022/01/06 04:37:04;;;;;;;22.33;4.00;;;7.10;65.60;;;;;;4989370;28;20026;-58
2022/01/06 04:39:30;;;;;;;22.75;4.18;;;7.00;65.60;;;;;;4995331;28;20034;-57
2022/01/06 04:41:56;;;;;;;23.27;4.28;;;7.00;65.70;;;;;;4997783;28;20030;-56
2022/01/06 04:44:23;;;;;;;29.60;4.50;;;7.00;65.70;;;;;;4999787;28;20037;-57
2022/01/06 04:46:49;;;;;;;16.77;3.78;;;7.00;65.70;;;;;;4993187;28;20030;-56
2022/01/06 04:49:15;;;;;;;21.15;4.45;;;7.00;65.70;;;;;;4992637;28;20049;-55
2022/01/06 04:51:41;;;;;;;21.05;4.00;;;7.00;65.60;;;;;;4994749;28;20029;-56
2022/01/06 04:54:08;;;;;;;34.35;4.57;;;7.00;65.60;;;;;;4973139;28;20394;-57
2022/01/06 04:56:37;;;;;;;25.42;4.07;;;7.00;65.70;;;;;;4990520;28;20026;-56
2022/01/06 04:59:06;;;;;;;26.15;4.03;;;7.00;65.60;;;;;;4993709;28;20044;-57
2022/01/06 05:01:32;;;;;;;21.23;3.80;;;6.90;65.60;;;;;;4989344;28;20042;-56
2022/01/06 05:03:58;;;;;;;23.55;4.38;;;7.00;65.70;;;;;;4982981;28;20034;-56
2022/01/06 05:06:25;;;;;;;26.92;4.32;;;6.90;65.70;;;;;;4983743;28;20050;-57
2022/01/06 05:08:51;;;;;;;21.15;3.67;;;7.00;66.60;;;;;;4978276;28;20038;-58
2022/01/06 05:11:17;;;;;;;23.85;3.95;;;7.00;65.90;;;;;;4967466;28;20026;-53
2022/01/06 05:13:44;;;;;;;23.27;4.18;;;7.00;65.90;;;;;;4980712;28;20038;-57
2022/01/06 05:16:10;;;;;;;22.17;3.70;;;7.00;65.80;;;;;;4972499;28;20030;-55
2022/01/06 05:18:36;;;;;;;18.70;3.67;;;7.00;65.80;;;;;;4974117;28;20506;-56
2022/01/06 05:21:05;;;;;;;23.92;3.70;;;7.00;65.80;;;;;;4983205;28;20356;-55
2022/01/06 05:23:32;;;;;;;25.92;4.32;;;7.00;65.60;;;;;;4980078;28;20026;-55
2022/01/06 05:25:58;;;;;;;12.65;3.05;;;7.00;65.60;;;;;;4970405;28;20049;-57
2022/01/06 05:28:25;;;;;;;25.88;3.88;;;7.00;65.60;;;;;;4979959;28;20042;-57
2022/01/06 05:30:52;;;;;;;28.90;3.97;;;7.00;65.60;;;;;;4982100;28;20022;-58
2022/01/06 05:33:18;;;;;;;23.63;4.60;;;7.00;65.60;;;;;;4980764;28;20030;-57
2022/01/06 05:35:45;;;;;;;20.10;3.83;;;7.00;65.30;;;;;;4980529;28;20038;-59
2022/01/06 05:38:12;;;;;;;23.25;3.63;;;7.00;65.30;;;;;;4979910;28;20031;-57
2022/01/06 05:40:38;;;;;;;27.33;3.90;;;7.00;65.40;;;;;;4981167;28;20030;-56
2022/01/06 05:43:05;;;;;;;16.98;3.45;;;7.00;65.40;;;;;;4983003;28;20407;-56
2022/01/06 05:45:31;;;;;;;18.55;4.03;;;7.00;65.40;;;;;;4979450;28;20026;-58
2022/01/06 05:47:57;;;;;;;23.55;3.40;;;7.00;65.30;;;;;;4979009;28;20023;-58
2022/01/06 05:50:23;;;;;;;23.67;4.00;;;7.00;65.30;;;;;;4979102;28;20034;-55
2022/01/06 05:52:50;;;;;;;17.55;3.95;;;7.00;65.10;;;;;;4979685;28;20027;-56
2022/01/06 05:55:16;;;;;;;25.77;3.90;;;7.00;65.20;;;;;;4980175;28;20027;-54
2022/01/06 05:57:42;;;;;;;23.85;3.92;;;7.00;65.20;;;;;;4976775;28;20383;-55
2022/01/06 06:00:09;;;;;;;22.70;3.35;;;7.00;65.30;;;;;;4978261;28;20053;-55
2022/01/06 06:02:35;;;;;;;20.88;4.75;;;7.00;65.30;;;;;;4979779;28;20034;-54
2022/01/06 06:05:01;;;;;;;27.77;4.55;;;7.00;65.30;;;;;;4977307;28;20030;-57
2022/01/06 06:07:27;;;;;;;27.17;3.92;;;7.00;65.20;;;;;;4982428;28;20547;-58
2022/01/06 06:09:53;;;;;;;21.25;3.75;;;7.00;65.20;;;;;;4987897;28;20038;-56
2022/01/06 06:12:20;;;;;;;14.07;3.85;;;7.00;65.20;;;;;;4982478;28;20211;-56
2022/01/06 06:14:46;;;;;;;19.98;3.67;;;7.00;65.30;;;;;;4989213;28;20056;-56
2022/01/06 06:17:13;;;;;;;18.45;3.67;;;7.00;65.20;;;;;;4986953;28;20034;-57
2022/01/06 06:19:39;;;;;;;18.60;3.63;;;7.00;65.10;;;;;;4982623;28;20018;-56
2022/01/06 06:22:05;;;;;;;31.90;4.53;;;7.00;65.10;;;;;;4988982;28;20046;-56
2022/01/06 06:24:33;;;;;;;23.92;4.32;;;7.00;65.00;;;;;;4982012;28;20104;-55
2022/01/06 06:27:00;;;;;;;22.58;4.20;;;7.00;64.80;;;;;;4980502;28;20022;-56
2022/01/06 06:29:26;;;;;;;28.33;4.05;;;7.00;64.80;;;;;;4982687;28;20332;-55
2022/01/06 06:31:52;;;;;;;22.35;3.83;;;7.00;64.70;;;;;;4988209;28;20029;-56
2022/01/06 06:34:19;;;;;;;32.13;4.40;;;7.00;64.60;;;;;;4994855;28;20394;-57
2022/01/06 06:36:45;;;;;;;29.80;5.22;;;7.00;64.50;;;;;;4989963;28;20034;-57
2022/01/06 06:39:11;;;;;;;21.80;3.83;;;7.00;64.50;;;;;;4984377;28;20454;-54
2022/01/06 06:41:37;;;;;;;26.60;4.10;;;7.00;64.40;;;;;;4998566;28;20030;-57
2022/01/06 06:44:04;;;;;;;19.58;3.92;;;7.00;64.40;;;;;;4996834;28;20030;-57
2022/01/06 06:46:30;;;;;;;24.33;4.00;;;7.00;64.40;;;;;;4990011;28;20703;-56
2022/01/06 06:48:56;;;;;;;29.67;4.45;;;7.00;64.60;;;;;;4991219;28;20442;-53
2022/01/06 06:51:22;;;;;;;15.82;3.58;;;7.00;64.60;;;;;;4988779;28;20509;-53
2022/01/06 06:53:49;;;;;;;24.55;4.15;;;7.00;64.60;;;;;;4988044;28;20029;-55
2022/01/06 06:56:15;;;;;;;24.98;4.47;;;7.00;64.60;;;;;;4976800;28;20364;-55
2022/01/06 06:58:41;;;;;;;28.45;4.63;;;7.00;64.40;;;;;;4989271;28;20033;-58
2022/01/06 07:01:07;;;;;;;24.77;4.10;;;7.00;64.30;;;;;;4977218;28;20042;-59
2022/01/06 07:03:33;;;;;;;27.33;4.70;;;7.00;64.20;;;;;;4958518;28;20034;-55
2022/01/06 07:05:59;;;;;;;24.38;4.30;;;7.00;64.10;;;;;;4961792;28;20050;-53
2022/01/06 07:08:26;;;;;;;23.65;3.83;;;7.00;64.00;;;;;;4981332;28;20528;-55
2022/01/06 07:10:52;;;;;;;19.67;3.80;;;7.00;64.00;;;;;;4976881;28;20604;-57
2022/01/06 07:13:19;;;;;;;22.75;4.15;;;7.00;64.10;;;;;;4983393;28;20489;-58
2022/01/06 07:15:46;;;;;;;23.85;4.32;;;7.00;64.10;;;;;;4983462;28;20356;-55
2022/01/06 07:18:12;;;;;;;23.20;4.47;;;7.00;64.20;;;;;;4971542;28;20018;-56
2022/01/06 07:20:39;;;;;;;23.40;4.00;;;7.00;64.40;;;;;;4966582;28;20038;-56
2022/01/06 07:23:05;;;;;;;28.40;4.55;;;7.00;64.50;;;;;;4985847;28;20051;-53
2022/01/06 07:25:31;;;;;;;23.55;4.03;;;7.00;64.50;;;;;;4984147;28;20037;-55
2022/01/06 07:27:57;;;;;;;20.95;4.50;;;7.10;64.50;;;;;;4982461;28;20045;-58
2022/01/06 07:30:24;;;;;;;18.73;4.18;;;7.10;64.20;;;;;;4989072;28;20041;-56
2022/01/06 07:32:51;;;;;;;24.00;4.43;;;7.10;64.00;;;;;;4985709;28;20928;-54
2022/01/06 07:35:21;;;;;;;18.17;4.22;;;7.10;64.00;;;;;;4983657;28;20627;-52
2022/01/06 07:37:49;;;;;;;25.92;4.28;;;7.20;63.90;;;;;;4983340;28;20026;-58
2022/01/06 07:40:16;;;;;;;25.23;4.75;;;7.20;63.80;;;;;;4953890;28;20057;-57
2022/01/06 07:42:43;;;;;;;26.08;4.63;;;7.20;63.60;;;;;;4991085;28;20050;-56
2022/01/06 07:45:09;;;;;;;22.48;5.60;;;7.20;63.50;;;;;;4983695;28;20560;-56
2022/01/06 07:47:43;;;;;;;36.50;6.00;;;7.20;63.40;;;;;;4979559;28;20030;-56
2022/01/06 07:50:09;;;;;;;24.40;5.38;;;7.20;63.20;;;;;;4976428;28;20042;-56
2022/01/06 07:52:35;;;;;;;23.13;5.13;;;7.30;63.20;;;;;;4983549;28;20391;-57
2022/01/06 07:55:02;;;;;;;29.20;5.25;;;7.30;63.20;;;;;;4970884;28;20419;-58
2022/01/06 07:57:28;;;;;;;26.40;5.45;;;7.30;63.30;;;;;;4987914;28;20475;-58
2022/01/06 07:59:54;;;;;;;29.80;5.28;;;7.30;63.30;;;;;;4999389;28;20049;-55
2022/01/06 08:02:20;;;;;;;26.38;5.75;;;7.30;63.30;;;;;;4991287;28;20046;-55
2022/01/06 08:04:47;;;;;;;26.00;6.03;;;7.30;63.30;;;;;;4985484;28;20056;-58
2022/01/06 08:07:13;;;;;;;19.80;4.68;;;7.20;63.20;;;;;;4992369;28;20046;-54
2022/01/06 08:09:43;;;;;;;33.22;5.88;;;7.20;63.30;;;;;;4979371;28;20043;-58
2022/01/06 08:12:09;;;;;;;28.80;5.95;;;7.20;63.40;;;;;;4995541;28;20029;-57
2022/01/06 08:14:35;;;;;;;30.40;6.43;;;7.20;63.40;;;;;;4991115;28;20021;-57
2022/01/06 08:17:02;;;;;;;31.42;5.97;;;7.20;63.40;;;;;;4981612;28;20033;-56
2022/01/06 08:19:28;;;;;;;27.60;6.35;;;7.20;63.40;;;;;;4996900;28;20517;-56
2022/01/06 08:21:54;;;;;;;30.60;6.65;;;7.20;63.40;;;;;;4987531;28;20035;-56
2022/01/06 08:24:20;;;;;;;37.35;7.07;;;7.20;63.50;;;;;;4987250;28;20306;-56
2022/01/06 08:26:46;;;;;;;33.00;6.45;;;7.20;63.30;;;;;;4993794;28;20026;-58
2022/01/06 08:29:13;;;;;;;38.67;6.30;;;7.20;64.10;;;;;;4984240;28;20041;-55
2022/01/06 08:31:39;;;;;;;26.13;5.43;;;7.20;63.50;;;;;;4989926;28;20518;-57
2022/01/06 08:34:05;;;;;;;21.42;5.43;;;7.20;63.50;;;;;;4990599;28;20458;-57
2022/01/06 08:36:31;;;;;;;22.50;4.82;;;7.20;63.60;;;;;;4988272;28;20035;-54
2022/01/06 08:38:57;;;;;;;26.05;6.05;;;7.20;63.70;;;;;;4981033;28;20766;-57
2022/01/06 08:41:24;;;;;;;34.88;6.45;;;7.30;63.70;;;;;;4979702;28;20029;-56
2022/01/06 08:43:50;;;;;;;34.67;6.95;;;7.30;63.60;;;;;;4984750;28;20034;-57
2022/01/06 08:46:16;;;;;;;20.13;6.03;;;7.30;63.50;;;;;;4986764;28;20891;-56
2022/01/06 08:48:42;;;;;;;23.73;6.10;;;7.30;63.50;;;;;;4999748;28;20018;-58
2022/01/06 08:51:08;;;;;;;24.08;6.43;;;7.30;63.50;;;;;;5000561;28;20092;-57
2022/01/06 08:53:35;;;;;;;26.45;5.95;;;7.30;63.60;;;;;;4991617;28;20073;-56
2022/01/06 08:56:01;;;;;;;24.90;6.05;;;7.30;63.60;;;;;;4970564;28;20053;-56
2022/01/06 08:58:27;;;;;;;32.33;5.97;;;7.40;63.60;;;;;;4987172;28;20049;-58
2022/01/06 09:00:53;;;;;;;23.15;6.50;;;7.40;63.70;;;;;;4982773;28;20047;-57
2022/01/06 09:03:19;;;;;;;25.10;6.00;;;7.40;63.70;;;;;;4994249;28;20030;-57
2022/01/06 09:05:46;;;;;;;29.73;7.10;;;7.40;63.70;;;;;;5000214;28;20474;-56
2022/01/06 09:08:12;;;;;;;25.42;6.43;;;7.40;63.60;;;;;;4998886;28;20057;-57
2022/01/06 09:10:38;;;;;;;29.45;6.90;;;7.40;63.40;;;;;;4983214;28;20524;-56
2022/01/06 09:13:06;;;;;;;28.45;6.75;;;7.40;63.30;;;;;;4987678;28;20021;-56
2022/01/06 09:15:32;;;;;;;23.63;6.32;;;7.40;63.20;;;;;;4983480;28;20023;-56
2022/01/06 09:17:59;;;;;;;22.45;6.30;;;7.40;63.20;;;;;;4981238;28;20023;-57
2022/01/06 09:20:25;;;;;;;30.55;7.70;;;7.50;63.30;;;;;;4982475;28;20038;-59
2022/01/06 09:22:51;;;;;;;27.30;7.68;;;7.40;63.00;;;;;;4983100;28;20026;-57
2022/01/06 09:25:17;;;;;;;32.97;7.63;;;7.40;62.90;;;;;;4983365;28;20034;-56
2022/01/06 09:27:44;;;;;;;18.85;6.95;;;7.50;63.10;;;;;;4971707;28;20041;-55
2022/01/06 09:30:11;;;;;;;29.02;6.63;;;7.50;63.00;;;;;;4981480;28;20038;-59
2022/01/06 09:32:38;;;;;;;18.55;6.90;;;7.50;63.00;;;;;;4994004;28;21049;-57
2022/01/06 09:35:04;;;;;;;33.15;7.10;;;7.50;63.00;;;;;;4991259;28;20121;-57
2022/01/06 09:37:30;;;;;;;31.75;8.80;;;7.50;63.10;;;;;;4982123;28;20030;-56
2022/01/06 09:39:56;;;;;;;27.52;6.70;;;7.50;63.10;;;;;;4982491;28;20046;-59
2022/01/06 09:42:22;;;;;;;23.38;7.05;;;7.50;63.20;;;;;;4980725;28;20034;-59
2022/01/06 09:44:50;;;;;;;26.75;7.00;;;7.50;63.40;;;;;;4982383;28;20038;-59
2022/01/06 09:47:18;;;;;;;27.08;8.40;;;7.50;63.30;;;;;;4980966;28;20030;-57
2022/01/06 09:49:44;;;;;;;31.50;7.78;;;7.50;63.40;;;;;;4982426;28;20628;-56
2022/01/06 09:52:12;;;;;;;26.00;7.40;;;7.50;63.10;;;;;;4991347;28;20498;-56
2022/01/06 09:54:40;;;;;;;31.27;7.28;;;7.50;63.10;;;;;;4982844;28;20506;-55
2022/01/06 09:57:07;;;;;;;40.05;8.18;;;7.50;62.90;;;;;;4983835;28;20026;-57
2022/01/06 09:59:34;;;;;;;29.13;7.75;;;7.40;62.60;;;;;;4999084;28;20386;-58
2022/01/06 10:02:00;;;;;;;32.22;7.88;;;7.40;62.90;;;;;;4980585;28;20026;-57
2022/01/06 10:04:28;;;;;;;30.30;8.23;;;7.50;63.40;;;;;;4991492;28;20049;-56
2022/01/06 10:07:06;;;;;;;30.23;8.95;;;7.40;63.20;;;;;;4982677;28;20522;-59
2022/01/06 10:09:34;;;;;;;34.65;8.40;;;7.40;62.90;;;;;;4969209;28;20045;-56
2022/01/06 10:12:08;;;;;;;33.30;8.35;;;7.40;62.80;;;;;;4991699;28;20038;-57
2022/01/06 10:14:40;;;;;;;;;;;7.40;62.60;;;;;;4987852;28;20046;-59
2022/01/06 10:17:06;;;;;;;28.90;8.57;;;7.40;62.70;;;;;;4978639;28;19913;-56
2022/01/06 10:19:42;;;;;;;39.88;9.68;;;7.40;62.80;;;;;;4980701;28;20394;-57
2022/01/06 10:22:18;;;;;;;31.92;9.30;;;7.30;63.00;;;;;;4980767;28;20055;-59
2022/01/06 10:24:46;;;;;;;32.30;9.52;;;7.30;63.40;;;;;;4982447;28;20041;-57
2022/01/06 10:27:15;;;;;;;34.13;11.10;;;7.20;63.40;;;;;;4980295;28;20030;-56
2022/01/06 10:29:43;;;;;;;37.42;9.20;;;7.20;63.40;;;;;;4986391;28;20035;-58
2022/01/06 10:32:12;;;;;;;30.77;9.38;;;7.20;63.60;;;;;;4988823;28;20030;-59
2022/01/06 10:34:42;;;;;;;32.47;9.45;;;7.20;63.80;;;;;;4998061;28;20033;-58
2022/01/06 10:37:29;;;;;;;36.80;10.48;;;7.20;64.00;;;;;;4984222;28;20041;-57
2022/01/06 10:40:06;;;;;;;31.13;10.05;;;7.30;63.70;;;;;;4989139;28;20369;-55
2022/01/06 10:42:35;;;;;;;40.33;10.23;;;7.30;63.40;;;;;;4986893;28;20046;-56
2022/01/06 10:45:09;;;;;;;34.08;10.25;;;7.30;63.50;;;;;;4983940;28;20029;-56
2022/01/06 10:47:36;;;;;;;34.03;10.52;;;7.30;63.50;;;;;;4974709;28;20033;-58
2022/01/06 10:50:19;;;;;;;31.05;10.52;;;7.30;63.60;;;;;;4980836;28;20034;-59
2022/01/06 10:52:49;;;;;;;33.38;11.00;;;7.30;63.60;;;;;;4995508;28;20030;-59
2022/01/06 10:55:29;;;;;;;43.83;11.30;;;7.30;63.60;;;;;;4992814;28;20049;-57
2022/01/06 10:58:11;;;;;;;34.97;9.70;;;7.30;63.40;;;;;;4981649;28;20026;-58
2022/01/06 11:00:48;;;;;;;28.92;9.15;;;7.30;63.40;;;;;;4984590;28;20049;-58
2022/01/06 11:03:20;;;;;;;36.42;11.07;;;7.30;63.40;;;;;;4980444;28;20046;-57
2022/01/06 11:05:55;;;;;;;32.95;9.60;;;7.30;63.50;;;;;;4981173;28;20030;-58
2022/01/06 11:08:25;;;;;;;27.83;10.07;;;7.30;63.60;;;;;;4961596;28;20065;-56
2022/01/06 11:11:45;;;;;;;28.90;9.40;;;7.30;63.80;;;;;;4966041;28;20043;-56
2022/01/06 11:13:49;;;;;;;30.25;9.38;;;7.30;63.70;;;;;;4948301;28;20534;-57
2022/01/06 11:16:18;;;;;;;35.65;9.75;;;7.40;63.50;;;;;;4956152;28;20027;-59
2022/01/06 11:18:55;;;;;;;46.42;11.93;;;7.40;63.50;;;;;;4959881;28;20395;-58
2022/01/06 11:21:32;;;;;;;27.27;9.10;;;7.40;63.10;;;;;;4960941;28;20035;-56
2022/01/06 11:24:12;;;;;;;35.50;10.45;;;7.40;63.10;;;;;;4965186;28;20034;-57
2022/01/06 11:26:40;;;;;;;37.92;10.00;;;7.50;63.30;;;;;;4961950;28;20030;-58
2022/01/06 11:29:06;;;;;;;39.00;10.38;;;7.50;63.30;;;;;;4967241;28;20042;-56
2022/01/06 11:31:37;;;;;;;41.65;13.95;;;7.50;63.50;;;;;;4966208;28;20650;-55
2022/01/06 11:34:16;;;;;;;59.45;22.90;;;7.50;63.40;;;;;;4960198;28;20041;-58
2022/01/06 11:36:45;;;;;;;41.15;15.32;;;7.60;63.30;;;;;;4965611;28;20026;-59
2022/01/06 11:39:27;;;;;;;32.95;9.63;;;7.70;63.30;;;;;;4963057;28;20352;-56
2022/01/06 11:41:56;;;;;;;31.17;10.45;;;7.70;62.60;;;;;;4967982;28;20046;-57
2022/01/06 11:44:31;;;;;;;54.72;22.48;;;7.70;62.70;;;;;;4976149;28;20026;-57
2022/01/06 11:47:00;;;;;;;54.65;21.08;;;7.80;62.90;;;;;;4959714;28;20038;-59
2022/01/06 11:49:39;;;;;;;38.88;12.60;;;7.80;63.10;;;;;;4956337;28;20042;-58
2022/01/06 11:52:11;;;;;;;33.58;12.48;;;7.90;62.80;;;;;;4959677;28;20039;-59
2022/01/06 11:54:52;;;;;;;47.17;14.13;;;7.90;62.90;;;;;;4955608;28;20107;-58
2022/01/06 11:57:37;;;;;;;44.33;11.07;;;8.00;62.70;;;;;;4966545;28;20462;-57
2022/01/06 12:00:20;;;;;;;27.17;9.20;;;8.00;62.60;;;;;;4968404;28;20027;-57
2022/01/06 12:03:07;;;;;;;34.47;9.98;;;8.10;62.40;;;;;;4975039;28;20045;-56
2022/01/06 12:05:49;;;;;;;38.47;9.63;;;8.10;62.10;;;;;;4975129;28;20038;-59
2022/01/06 12:08:16;;;;;;;32.63;8.60;;;8.10;61.60;;;;;;4997741;28;20042;-57
2022/01/06 12:10:48;;;;;;;30.63;9.80;;;8.10;61.60;;;;;;4998658;28;20041;-59
2022/01/06 12:13:16;;;;;;;34.55;9.63;;;8.10;61.80;;;;;;4971925;28;20046;-57
2022/01/06 12:16:02;;;;;;;33.55;8.50;;;8.10;61.60;;;;;;4988058;28;20029;-58
2022/01/06 12:18:32;;;;;;;34.20;8.70;;;8.10;61.50;;;;;;4972656;28;20042;-59
2022/01/06 12:20:58;;;;;;;34.78;8.75;;;8.10;61.80;;;;;;4984962;28;20034;-57
2022/01/06 13:18:32;;;;;;;44.50;13.52;;;8.40;59.30;;;;;;4965577;23;20055;-60
2022/01/06 13:21:00;;;;;;;28.67;7.40;;;8.40;59.40;;;;;;4962745;28;20038;-57
2022/01/06 13:26:07;;;;;;;29.60;7.03;;;8.40;59.50;;;;;;4962084;28;20027;-57
2022/01/06 13:28:34;;;;;;;28.45;6.93;;;8.40;59.60;;;;;;4945421;28;20023;-57
2022/01/06 13:31:00;;;;;;;28.55;6.80;;;8.40;59.50;;;;;;4959972;28;20397;-57
2022/01/06 13:33:31;;;;;;;27.30;5.68;;;8.40;59.50;;;;;;4959542;28;20038;-54
2022/01/06 13:36:02;;;;;;;29.10;8.07;;;8.40;59.50;;;;;;4956058;28;20066;-57
2022/01/06 14:36:54;;;;;;;28.17;5.40;;;9.00;59.10;;;;;;5004704;28;20045;-57
2022/01/06 14:39:20;;;;;;;17.40;5.60;;;9.10;59.30;;;;;;4976485;28;20053;-56
2022/01/06 14:41:47;;;;;;;25.48;5.75;;;9.00;59.30;;;;;;4975721;28;20064;-58
2022/01/06 14:44:13;;;;;;;28.05;5.40;;;9.00;59.30;;;;;;4976133;28;20035;-58
2022/01/06 14:46:40;;;;;;;26.98;4.72;;;9.00;59.20;;;;;;4978697;28;20027;-58
2022/01/06 14:49:06;;;;;;;25.35;4.78;;;9.00;59.20;;;;;;4976663;28;20042;-58
2022/01/06 14:51:33;;;;;;;29.75;5.47;;;9.00;59.10;;;;;;4978810;28;20035;-57